Ironwood Gogebic Iron County Airport

Current Flights

Info
Name: Ironwood Gogebic Iron County Airport
Identifier:  IWD/KIWD
Local Time:  19. May 04:04
City
Flights per Day
6 flights
Distance: 411km (255mi)
Punctuality
84% (1 flights per day delayed)
Delay Average: 197 minutes
Current Weather
 5 C (Humidity: 86%)
  10kt (18km/h / 11mph) from 70°
20 knots Gusts

  Overcast at 1,000 feet (304 meter)
  16km (10 mi.)
 METAR KIWD 190756Z AUTO 07010G20KT 10SM OVC010 05/03 A2989 RMK AO2 SLP132 T00500028

Current Delays

Departures
N/A
Arrivals
N/A

Destinations

Top Destinations
Airport Flights
per week
Seats
per week
  Chicago (ORD) 14 - 2 0
  Minneapolis (MSP) 7 - 1 0
  St. Louis (STL) <1 - 0 0
  Iron Mountain (IMT) <1 - 0 0
  Milwaukee (MKE) <1 - 0 0

Airlines & Planes

Top Airlines
Airline Flights
per Day
Seats
per Day
Air Choice One 2 -
Freight Runners Express <1 -
Jet Charter Inc ( Franklin Lakes Nj ) <1 -
Top Plane Types
Manufacturer Model Flights Seats
Cessna C208 3.9/day - 0
Beech 1900D 0.1/day - 0